Time;durP1;ratioP1;P1;durP2;ratioP2;P2;SDS_P1;SDS_P2;PMS_P1;PMS_P2;Temp;Humidity;BMP_temperature;BMP_pressure;BME280_temperature;BME280_humidity;BME280_pressure;Samples;Min_cycle;Max_cycle;Signal;HPM_P1;HPM_P2
2022/03/31 00:00:19;;;;;;;28.83;12.93;;;;;;;;;;4995101;28;20772;-71
2022/03/31 00:02:45;;;;;;;27.13;12.13;;;;;;;;;;4995019;28;20416;-71
2022/03/31 00:05:11;;;;;;;33.97;12.20;;;;;;;;;;4994751;28;20808;-71
2022/03/31 00:07:48;;;;;;;26.70;10.03;;;;;;;;;;4994855;28;20424;-71
2022/03/31 00:10:14;;;;;;;28.27;10.50;;;;;;;;;;4994768;28;20514;-71
2022/03/31 00:12:40;;;;;;;41.73;11.70;;;;;;;;;;5000213;28;20439;-71
2022/03/31 00:15:06;;;;;;;30.20;10.23;;;;;;;;;;5002278;28;20524;-70
2022/03/31 00:17:32;;;;;;;25.87;11.47;;;;;;;;;;4994836;28;20425;-71
2022/03/31 00:19:58;;;;;;;34.67;11.97;;;;;;;;;;4994542;28;20432;-71
2022/03/31 00:22:24;;;;;;;26.23;9.17;;;;;;;;;;4994421;28;20448;-71
2022/03/31 00:24:50;;;;;;;27.87;12.17;;;;;;;;;;4994630;28;20999;-71
2022/03/31 00:27:16;;;;;;;35.33;10.73;;;;;;;;;;4994453;28;20495;-71
2022/03/31 00:29:42;;;;;;;39.97;13.50;;;;;;;;;;4994358;28;20413;-71
2022/03/31 00:32:08;;;;;;;30.90;12.03;;;;;;;;;;4994484;28;20845;-70
2022/03/31 00:34:35;;;;;;;27.50;11.90;;;;;;;;;;4994246;28;20413;-70
2022/03/31 00:37:01;;;;;;;30.37;12.13;;;;;;;;;;4994525;28;20429;-70
2022/03/31 00:39:33;;;;;;;39.80;13.50;;;;;;;;;;4994602;28;20424;-70
2022/03/31 00:42:00;;;;;;;57.93;14.60;;;;;;;;;;4992859;28;20421;-70
2022/03/31 00:44:26;;;;;;;45.67;13.80;;;;;;;;;;4994049;28;20413;-70
2022/03/31 00:46:53;;;;;;;28.97;11.50;;;;;;;;;;4994659;28;20507;-71
2022/03/31 00:49:20;;;;;;;27.10;10.43;;;;;;;;;;4993785;28;20440;-71
2022/03/31 00:51:47;;;;;;;42.73;10.33;;;;;;;;;;4994322;28;20466;-71
2022/03/31 00:54:13;;;;;;;28.50;10.33;;;;;;;;;;4993980;28;20934;-71
2022/03/31 00:56:41;;;;;;;26.27;10.83;;;;;;;;;;4993802;28;20433;-71
2022/03/31 00:59:08;;;;;;;25.93;10.17;;;;;;;;;;4993080;28;20456;-71
2022/03/31 01:01:34;;;;;;;25.87;10.70;;;;;;;;;;4994309;28;20463;-71
2022/03/31 01:04:04;;;;;;;28.97;12.43;;;;;;;;;;4993537;28;20519;-71
2022/03/31 01:06:30;;;;;;;30.73;11.70;;;;;;;;;;4993710;28;20461;-71
2022/03/31 01:08:57;;;;;;;26.93;11.20;;;;;;;;;;4993902;28;20951;-71
2022/03/31 01:11:23;;;;;;;28.43;11.70;;;;;;;;;;4993664;28;20432;-71
2022/03/31 01:13:49;;;;;;;23.60;9.73;;;;;;;;;;4995296;28;20424;-71
2022/03/31 01:16:16;;;;;;;24.53;10.33;;;;;;;;;;4993524;28;20467;-70
2022/03/31 01:18:42;;;;;;;19.53;8.50;;;;;;;;;;4993845;28;20452;-70
2022/03/31 01:21:11;;;;;;;31.03;11.03;;;;;;;;;;4993308;28;20435;-70
2022/03/31 01:23:37;;;;;;;29.73;8.73;;;;;;;;;;4993521;28;20452;-70
2022/03/31 01:26:09;;;;;;;32.80;9.30;;;;;;;;;;4993216;28;20905;-70
2022/03/31 01:28:35;;;;;;;30.83;8.43;;;;;;;;;;4993788;28;20503;-70
2022/03/31 01:31:01;;;;;;;18.10;7.80;;;;;;;;;;4993552;28;20428;-72
2022/03/31 01:33:28;;;;;;;26.33;9.47;;;;;;;;;;4993516;28;20424;-71
2022/03/31 01:35:55;;;;;;;29.00;8.30;;;;;;;;;;4992958;28;20429;-71
2022/03/31 01:38:21;;;;;;;25.43;9.10;;;;;;;;;;4993352;28;20523;-72
2022/03/31 01:40:47;;;;;;;21.63;7.50;;;;;;;;;;4993341;28;20433;-71
2022/03/31 01:43:13;;;;;;;30.53;9.23;;;;;;;;;;4992956;28;20571;-71
2022/03/31 01:45:39;;;;;;;22.80;7.93;;;;;;;;;;4993058;28;21011;-72
2022/03/31 01:48:05;;;;;;;21.60;8.00;;;;;;;;;;4993402;28;20548;-71
2022/03/31 01:50:31;;;;;;;27.67;8.97;;;;;;;;;;4993201;28;20772;-71
2022/03/31 01:52:57;;;;;;;26.10;8.57;;;;;;;;;;4992845;28;20851;-72
2022/03/31 01:55:24;;;;;;;27.23;8.60;;;;;;;;;;4992600;28;20515;-71
2022/03/31 01:57:50;;;;;;;20.83;8.20;;;;;;;;;;4993595;28;20432;-71
2022/03/31 02:00:16;;;;;;;26.30;8.30;;;;;;;;;;4993232;28;20442;-71
2022/03/31 02:02:43;;;;;;;37.17;8.83;;;6.40;1.00;;;;;;4993253;28;20421;-70
2022/03/31 02:05:09;;;;;;;24.53;8.13;;;6.40;1.00;;;;;;4992930;28;20926;-70
2022/03/31 02:07:38;;;;;;;25.90;8.47;;;;;;;;;;4992888;28;20433;-70
2022/03/31 02:10:08;;;;;;;18.67;6.17;;;;;;;;;;4992674;28;20429;-70
2022/03/31 02:12:34;;;;;;;18.30;7.60;;;;;;;;;;4996541;28;20422;-70
2022/03/31 02:15:01;;;;;;;23.43;8.17;;;;;;;;;;5000380;28;20420;-71
2022/03/31 02:17:27;;;;;;;21.03;7.10;;;;;;;;;;4993466;28;20416;-71
2022/03/31 02:19:53;;;;;;;21.57;7.50;;;;;;;;;;4992835;28;20455;-71
2022/03/31 02:22:18;;;;;;;25.13;8.67;;;;;;;;;;4992600;28;20429;-71
2022/03/31 02:24:44;;;;;;;34.07;9.40;;;;;;;;;;4992868;28;20421;-72
2022/03/31 02:27:11;;;;;;;29.93;8.87;;;;;;;;;;4992589;28;20468;-71
2022/03/31 02:29:38;;;;;;;22.23;8.00;;;;;;;;;;4993122;28;20421;-71
2022/03/31 02:32:04;;;;;;;18.07;6.57;;;;;;;;;;4992928;28;20413;-71
2022/03/31 02:34:31;;;;;;;23.23;9.03;;;;;;;;;;4992736;28;20456;-71
2022/03/31 02:36:57;;;;;;;22.57;7.80;;;;;;;;;;4992686;28;20916;-71
2022/03/31 02:39:23;;;;;;;35.37;10.33;;;;;;;;;;4992485;28;20436;-71
2022/03/31 02:41:49;;;;;;;28.70;8.87;;;;;;;;;;4992722;28;20466;-71
2022/03/31 02:44:16;;;;;;;23.50;9.10;;;;;;;;;;4992635;28;20790;-71
2022/03/31 02:46:42;;;;;;;27.37;9.10;;;;;;;;;;4992805;28;20456;-71
2022/03/31 02:49:09;;;;;;;24.70;8.87;;;;;;;;;;4992319;28;20421;-71
2022/03/31 02:51:35;;;;;;;30.30;8.70;;;;;;;;;;4993018;28;20530;-71
2022/03/31 02:56:46;;;;;;;27.47;9.23;;;;;;;;;;4982521;28;20424;-71
2022/03/31 02:59:12;;;;;;;23.63;8.87;;;;;;;;;;4992390;28;20425;-72
2022/03/31 03:01:38;;;;;;;27.23;9.07;;;;;;;;;;4992957;28;20452;-71
2022/03/31 03:04:08;;;;;;;26.60;9.00;;;;;;;;;;4992303;28;20421;-71
2022/03/31 03:06:33;;;;;;;33.40;9.57;;;;;;;;;;4995073;28;20547;-71
2022/03/31 03:08:59;;;;;;;25.57;9.77;;;;;;;;;;4996381;28;20515;-71
2022/03/31 03:11:25;;;;;;;31.67;9.40;;;;;;;;;;4995583;28;20413;-71
2022/03/31 03:13:51;;;;;;;24.30;8.07;;;;;;;;;;5008307;28;20431;-72
2022/03/31 03:16:18;;;;;;;22.70;8.33;;;;;;;;;;4995647;28;20600;-72
2022/03/31 03:18:44;;;;;;;22.00;8.10;;;;;;;;;;4996035;28;20447;-71
2022/03/31 03:21:10;;;;;;;34.23;9.20;;;;;;;;;;4995916;28;20424;-70
2022/03/31 03:23:37;;;;;;;24.27;7.50;;;;;;;;;;4995560;28;20494;-71
2022/03/31 03:26:03;;;;;;;27.57;8.07;;;;;;;;;;4995628;28;20867;-70
2022/03/31 03:28:30;;;;;;;22.93;8.47;;;;;;;;;;4995588;28;20485;-71
2022/03/31 03:30:56;;;;;;;26.63;9.30;;;;;;;;;;4995793;28;20550;-70
2022/03/31 03:33:22;;;;;;;35.43;9.23;;;;;;;;;;4995480;28;20427;-71
2022/03/31 03:35:48;;;;;;;23.73;8.73;;;;;;;;;;4995784;28;20424;-71
2022/03/31 03:38:15;;;;;;;32.60;8.60;;;;;;;;;;4994839;28;20785;-72
2022/03/31 03:40:41;;;;;;;27.70;8.53;;;;;;;;;;4995631;28;20429;-71
2022/03/31 03:43:09;;;;;;;35.40;8.80;;;;;;;;;;4993781;28;20452;-71
2022/03/31 03:45:36;;;;;;;30.73;8.57;;;;;;;;;;4994742;28;20461;-72
2022/03/31 03:48:02;;;;;;;62.03;13.40;;;;;;;;;;4994038;28;20463;-70
2022/03/31 03:50:28;;;;;;;37.50;10.67;;;;;;;;;;4991866;28;20499;-70
2022/03/31 03:52:54;;;;;;;40.90;9.67;;;;;;;;;;4990244;28;20445;-71
2022/03/31 03:55:19;;;;;;;28.10;9.23;;;;;;;;;;4995323;28;20922;-71
2022/03/31 03:57:45;;;;;;;27.57;7.40;;;;;;;;;;4994572;28;20432;-70
2022/03/31 04:00:12;;;;;;;27.93;9.00;;;;;;;;;;4994737;28;20463;-71
2022/03/31 04:02:39;;;;;;;24.30;8.70;;;6.10;1.00;;;;;;4995358;28;20429;-71
2022/03/31 04:05:05;;;;;;;27.70;9.00;;;6.10;1.00;;;;;;4994303;28;20523;-71
2022/03/31 04:07:31;;;;;;;26.90;8.20;;;;;;;;;;4995165;28;20974;-71
2022/03/31 04:09:57;;;;;;;74.87;12.10;;;;;;;;;;4987956;28;20417;-71
2022/03/31 04:12:23;;;;;;;31.67;8.70;;;;;;;;;;4995049;28;20757;-71
2022/03/31 04:14:50;;;;;;;23.50;8.70;;;;;;;;;;5002003;28;20421;-72
2022/03/31 04:17:16;;;;;;;31.33;8.40;;;;;;;;;;4995130;28;20448;-71
2022/03/31 04:19:43;;;;;;;19.70;7.27;;;;;;;;;;4990244;28;20436;-70
2022/03/31 04:22:09;;;;;;;24.57;8.33;;;;;;;;;;4994322;28;20421;-70
2022/03/31 04:24:35;;;;;;;25.20;9.70;;;;;;;;;;4994609;28;20903;-70
2022/03/31 04:27:01;;;;;;;35.43;10.90;;;;;;;;;;4994200;28;20507;-70
2022/03/31 04:29:27;;;;;;;24.37;9.53;;;;;;;;;;4994845;28;20413;-70
2022/03/31 04:31:54;;;;;;;28.77;8.57;;;;;;;;;;4993866;28;20417;-70
2022/03/31 04:34:20;;;;;;;35.60;9.50;;;;;;;;;;4994692;28;20512;-72
2022/03/31 04:36:49;;;;;;;34.10;8.40;;;;;;;;;;4994687;28;20425;-71
2022/03/31 04:39:15;;;;;;;43.90;10.00;;;5.30;1.00;;;;;;4992904;28;20801;-71
2022/03/31 04:41:42;;;;;;;50.67;10.27;;;5.20;1.00;;;;;;4981427;28;20787;-71
2022/03/31 04:44:08;;;;;;;36.93;9.80;;;;;;;;;;4993597;28;20425;-72
2022/03/31 04:46:35;;;;;;;25.57;8.60;;;;;;;;;;4994138;28;20947;-71
2022/03/31 04:49:01;;;;;;;30.43;9.33;;;;;;;;;;4993929;28;20435;-71
2022/03/31 04:51:27;;;;;;;25.93;10.00;;;;;;;;;;4994589;28;20903;-71
2022/03/31 04:53:54;;;;;;;31.75;11.50;;;;;;;;;;4993228;28;20465;-71
2022/03/31 04:56:20;;;;;;;29.40;12.10;;;;;;;;;;4994161;28;20317;-71
2022/03/31 04:58:46;;;;;;;34.33;11.57;;;;;;;;;;4993925;28;20484;-71
2022/03/31 05:01:12;;;;;;;31.87;12.07;;;;;;;;;;4993085;28;20425;-72
2022/03/31 05:03:41;;;;;;;38.30;11.67;;;;;;;;;;4993946;28;20931;-70
2022/03/31 05:06:08;;;;;;;27.80;11.73;;;;;;;;;;4991687;28;20452;-70
2022/03/31 05:08:34;;;;;;;32.23;11.80;;;;;;;;;;4993884;28;20439;-70
2022/03/31 05:10:59;;;;;;;56.17;13.60;;;;;;;;;;4992895;28;20880;-70
2022/03/31 05:13:26;;;;;;;50.67;13.83;;;;;;;;;;4990649;28;20456;-70
2022/03/31 05:15:52;;;;;;;26.03;11.47;;;;;;;;;;4992147;28;20919;-70
2022/03/31 05:18:19;;;;;;;30.13;11.45;;;;;;;;;;4994050;28;20501;-72
2022/03/31 05:20:45;;;;;;;37.00;12.40;;;;;;;;;;4993885;28;20185;-72
2022/03/31 05:23:11;;;;;;;40.20;11.90;;;;;;;;;;4993354;28;20982;-72
2022/03/31 05:25:37;;;;;;;32.85;11.50;;;;;;;;;;4993601;28;20481;-72
2022/03/31 05:28:03;;;;;;;29.97;12.50;;;;;;;;;;4993141;28;20256;-72
2022/03/31 05:30:41;;;;;;;31.47;11.60;;;;;;;;;;4973140;28;20421;-72
2022/03/31 05:33:08;;;;;;;31.03;9.60;;;;;;;;;;4992582;28;20503;-71
2022/03/31 05:35:34;;;;;;;27.83;10.87;;;;;;;;;;4992999;28;20516;-72
2022/03/31 05:38:01;;;;;;;35.03;12.00;;;;;;;;;;4993124;28;20482;-72
2022/03/31 05:40:27;;;;;;;34.53;11.37;;;;;;;;;;4993282;28;20542;-72
2022/03/31 05:42:55;;;;;;;41.33;12.83;;;;;;;;;;4991572;28;20463;-72
2022/03/31 05:45:21;;;;;;;35.70;11.60;;;;;;;;;;4993643;28;20465;-72
2022/03/31 05:47:47;;;;;;;32.27;11.73;;;;;;;;;;4992317;28;20444;-72
2022/03/31 05:50:13;;;;;;;23.07;6.90;;;6.40;1.00;;;;;;4993627;28;20424;-73
2022/03/31 05:52:42;;;;;;;47.20;11.23;;;7.10;1.00;;;;;;4992277;28;20535;-72
2022/03/31 05:55:09;;;;;;;71.60;12.07;;;;;;;;;;4988727;28;20478;-72
2022/03/31 05:57:35;;;;;;;31.63;10.17;;;;;;;;;;4989154;28;20826;-72
2022/03/31 06:00:02;;;;;;;32.03;9.00;;;;;;;;;;4992786;28;20433;-72
2022/03/31 06:02:28;;;;;;;33.83;10.73;;;;;;;;;;4992938;28;20447;-72
2022/03/31 06:04:54;;;;;;;26.83;9.40;;;;;;;;;;4993289;28;20449;-71
2022/03/31 06:07:20;;;;;;;45.93;9.47;;;;;;;;;;4993174;28;20452;-71
2022/03/31 06:09:46;;;;;;;27.53;10.00;;;;;;;;;;4993055;28;20431;-71
2022/03/31 06:12:12;;;;;;;29.80;9.20;;;;;;;;;;4994677;28;20409;-71
2022/03/31 06:14:38;;;;;;;30.43;9.33;;;;;;;;;;4997478;28;20817;-71
2022/03/31 06:17:05;;;;;;;34.67;9.50;;;;;;;;;;4993160;28;20416;-71
2022/03/31 06:19:31;;;;;;;30.40;9.70;;;;;;;;;;4989248;28;20436;-71
2022/03/31 06:21:57;;;;;;;23.33;8.60;;;;;;;;;;4993157;28;20471;-71
2022/03/31 06:24:23;;;;;;;23.40;8.33;;;;;;;;;;4992789;28;20428;-71
2022/03/31 06:26:49;;;;;;;29.33;9.23;;;;;;;;;;4992939;28;20547;-71
2022/03/31 06:29:15;;;;;;;24.30;8.53;;;;;;;;;;4992932;28;20424;-71
2022/03/31 06:31:41;;;;;;;24.93;8.40;;;;;;;;;;4992847;28;20966;-71
2022/03/31 06:34:07;;;;;;;37.93;8.93;;;;;;;;;;4993054;28;20966;-70
2022/03/31 06:36:35;;;;;;;22.17;8.30;;;;;;;;;;4992907;28;20425;-71
2022/03/31 06:39:02;;;;;;;22.50;7.93;;;;;;;;;;4993192;28;20907;-71
2022/03/31 06:41:28;;;;;;;26.07;9.03;;;;;;;;;;4995893;28;20431;-71
2022/03/31 06:43:54;;;;;;;26.63;9.20;;;;;;;;;;4996255;28;20420;-71
2022/03/31 06:46:20;;;;;;;26.53;9.40;;;;;;;;;;4996495;28;20460;-70
2022/03/31 06:48:47;;;;;;;35.97;9.47;;;;;;;;;;4996601;28;20787;-71
2022/03/31 06:51:14;;;;;;;31.47;9.30;;;6.90;1.00;;;;;;4996692;28;20432;-71
2022/03/31 06:53:40;;;;;;;28.03;9.07;;;;;;;;;;4996251;28;20445;-71
2022/03/31 06:56:07;;;;;;;25.17;9.07;;;;;;;;;;4996356;28;20432;-71
2022/03/31 06:58:33;;;;;;;32.97;9.20;;;;;;;;;;4996175;28;20420;-71
2022/03/31 07:00:59;;;;;;;22.00;8.47;;;;;;;;;;4996341;28;20424;-71
2022/03/31 07:03:26;;;;;;;26.60;9.63;;;;;;;;;;4996193;28;20511;-71
2022/03/31 07:05:52;;;;;;;25.97;9.13;;;;;;;;;;4996149;28;20490;-71
2022/03/31 07:08:18;;;;;;;42.93;11.20;;;;;;;;;;4996067;28;20904;-71
2022/03/31 07:10:44;;;;;;;21.63;8.33;;;;;;;;;;4996204;28;20421;-71
2022/03/31 07:13:10;;;;;;;45.13;11.10;;;;;;;;;;5001712;28;20486;-71
2022/03/31 07:15:37;;;;;;;25.93;9.63;;;;;;;;;;4996493;28;20496;-71
2022/03/31 07:18:04;;;;;;;24.53;9.47;;;;;;;;;;4996006;28;20511;-71
2022/03/31 07:20:30;;;;;;;32.23;9.90;;;;;;;;;;4996206;28;20428;-72
2022/03/31 07:22:57;;;;;;;25.30;8.83;;;;;;;;;;4996675;28;20922;-72
2022/03/31 07:25:23;;;;;;;31.70;10.47;;;;;;;;;;4995870;28;20468;-72
2022/03/31 07:27:50;;;;;;;22.00;9.20;;;;;;;;;;4994357;28;20768;-72
2022/03/31 07:30:16;;;;;;;38.27;10.83;;;;;;;;;;4995814;28;20868;-72
2022/03/31 07:32:46;;;;;;;25.73;10.10;;;;;;;;;;5004357;28;20424;-72
2022/03/31 07:35:13;;;;;;;28.33;9.40;;;;;;;;;;5003233;28;20476;-72
2022/03/31 07:37:39;;;;;;;34.47;10.13;;;;;;;;;;4999382;28;20421;-72
2022/03/31 07:40:05;;;;;;;24.20;8.57;;;;;;;;;;4995660;28;20424;-72
2022/03/31 07:42:31;;;;;;;25.30;9.17;;;;;;;;;;4996703;28;20415;-72
2022/03/31 07:44:57;;;;;;;27.53;10.03;;;;;;;;;;4995335;28;20425;-72
2022/03/31 07:47:24;;;;;;;35.63;10.70;;;;;;;;;;4994905;28;20452;-72
2022/03/31 07:49:50;;;;;;;33.90;9.60;;;;;;;;;;4995729;28;20478;-71
2022/03/31 07:52:18;;;;;;;30.73;8.20;;;;;;;;;;4994419;28;20508;-71
2022/03/31 07:54:44;;;;;;;38.07;11.00;;;;;;;;;;4994567;28;20500;-70
2022/03/31 07:57:10;;;;;;;50.63;12.37;;;;;;;;;;4984658;28;20420;-71
2022/03/31 07:59:36;;;;;;;28.93;10.47;;;;;;;;;;5010237;28;20901;-71
2022/03/31 08:02:02;;;;;;;32.63;10.87;;;;;;;;;;4994719;28;20475;-71
2022/03/31 08:04:28;;;;;;;39.00;10.50;;;;;;;;;;4995016;28;20424;-71
2022/03/31 08:06:55;;;;;;;33.83;10.00;;;8.20;1.00;;;;;;4993255;28;20958;-71
2022/03/31 08:09:21;;;;;;;27.90;10.63;;;;;;;;;;4995265;28;20424;-71
2022/03/31 08:11:51;;;;;;;29.60;10.57;;;;;;;;;;4995006;28;20503;-71
2022/03/31 08:14:21;;;;;;;28.03;9.80;;;8.30;1.00;;;;;;4995679;28;20440;-71
2022/03/31 08:16:50;;;;;;;32.53;10.73;;;;;;;;;;4995020;28;20452;-70
2022/03/31 08:19:17;;;;;;;36.13;11.67;;;;;;;;;;4996348;28;20450;-71
2022/03/31 08:21:44;;;;;;;27.37;9.97;;;;;;;;;;4995181;28;20417;-71
2022/03/31 08:24:11;;;;;;;32.80;11.23;;;;;;;;;;4994632;28;20421;-71
2022/03/31 08:26:37;;;;;;;26.87;10.53;;;;;;;;;;4994901;28;20499;-71
2022/03/31 08:29:04;;;;;;;28.10;10.20;;;;;;;;;;4994524;28;20423;-71
2022/03/31 08:31:30;;;;;;;29.73;11.10;;;;;;;;;;4990807;28;20925;-71
2022/03/31 08:33:56;;;;;;;35.17;11.43;;;;;;;;;;4994666;28;20408;-71
2022/03/31 08:36:22;;;;;;;29.33;10.57;;;;;;;;;;4994928;28;20416;-72
2022/03/31 08:38:48;;;;;;;29.67;10.03;;;;;;;;;;4994705;28;20413;-72
2022/03/31 08:41:15;;;;;;;42.33;12.13;;;;;;;;;;4993631;28;20476;-72
2022/03/31 08:43:42;;;;;;;33.30;10.30;;;;;;;;;;4994377;28;20425;-72
2022/03/31 08:46:10;;;;;;;59.87;12.47;;;8.40;1.00;;;;;;4994145;28;20458;-72
2022/03/31 08:48:37;;;;;;;27.40;10.93;;;;;;;;;;4994337;28;20435;-72
2022/03/31 08:51:04;;;;;;;29.07;10.90;;;;;;;;;;4993305;28;20523;-72
2022/03/31 08:53:31;;;;;;;29.37;9.93;;;8.70;1.00;;;;;;4994120;28;20423;-72
2022/03/31 08:55:57;;;;;;;19.63;8.57;;;;;;;;;;4993847;28;20487;-71
2022/03/31 08:58:25;;;;;;;31.83;9.73;;;;;;;;;;4994023;28;20503;-71
2022/03/31 09:00:52;;;;;;;31.03;10.93;;;;;;;;;;4994765;28;20412;-71
2022/03/31 09:03:18;;;;;;;26.57;10.33;;;;;;;;;;4993818;28;20788;-71
2022/03/31 09:05:46;;;;;;;25.30;9.57;;;9.20;1.00;;;;;;4994709;28;20799;-71
2022/03/31 09:08:16;;;;;;;28.10;11.50;;;;;;;;;;4994577;28;20412;-71
2022/03/31 09:10:47;;;;;;;33.90;12.70;;;;;;;;;;4994510;28;20725;-71
2022/03/31 09:13:24;;;;;;;31.80;11.83;;;;;;;;;;5004118;28;20462;-71
2022/03/31 09:15:58;;;;;;;29.60;11.53;;;9.60;1.00;;;;;;4987528;28;20420;-71
2022/03/31 09:18:24;;;;;;;39.93;13.33;;;;;;;;;;4994295;28;20823;-71
2022/03/31 09:20:55;;;;;;;30.80;12.10;;;;;;;;;;4994810;28;20416;-71
2022/03/31 09:23:23;;;;;;;31.10;11.53;;;;;;;;;;4994377;28;20438;-71
2022/03/31 09:25:52;;;;;;;29.03;10.87;;;;;;;;;;4994357;28;20508;-71
2022/03/31 09:28:20;;;;;;;41.67;12.27;;;;;;;;;;4994147;28;20440;-71
2022/03/31 09:30:47;;;;;;;29.00;11.90;;;;;;;;;;4994219;28;20441;-71
2022/03/31 09:33:24;;;;;;;30.87;12.10;;;;;;;;;;4994217;28;20391;-71
2022/03/31 09:35:55;;;;;;;30.53;11.93;;;;;;;;;;4994273;28;20427;-75
2022/03/31 09:38:22;;;;;;;35.57;12.63;;;;;;;;;;4994190;28;20391;-75
2022/03/31 09:40:48;;;;;;;36.67;12.70;;;;;;;;;;4994112;28;20423;-75
2022/03/31 09:43:14;;;;;;;47.97;13.90;;;;;;;;;;4993585;28;20926;-75
2022/03/31 09:45:41;;;;;;;31.83;12.50;;;;;;;;;;4993977;28;20509;-75
2022/03/31 09:48:17;;;;;;;29.73;12.27;;;;;;;;;;4993834;28;20505;-75
2022/03/31 09:50:43;;;;;;;36.03;12.53;;;;;;;;;;4992544;28;20899;-75
2022/03/31 09:53:09;;;;;;;27.90;12.57;;;;;;;;;;4993871;28;20898;-75
2022/03/31 09:55:35;;;;;;;29.63;11.73;;;;;;;;;;4992677;28;20464;-75
2022/03/31 09:58:02;;;;;;;35.73;13.23;;;;;;;;;;4993558;28;20515;-75
2022/03/31 10:00:28;;;;;;;27.37;11.87;;;;;;;;;;4993407;28;20395;-75
2022/03/31 10:02:55;;;;;;;28.43;12.77;;;;;;;;;;4993885;28;20387;-75
2022/03/31 10:05:21;;;;;;;33.03;13.40;;;;;;;;;;4994013;28;21042;-73
2022/03/31 10:07:48;;;;;;;27.87;12.10;;;11.00;1.00;;;;;;4993798;28;20434;-75
2022/03/31 10:10:14;;;;;;;27.80;12.60;;;;;;;;;;4993759;28;20449;-75
2022/03/31 10:12:48;;;;;;;36.40;13.20;;;;;;;;;;4997720;28;20374;-75
2022/03/31 10:15:27;;;;;;;29.63;12.13;;;;;;;;;;4996393;28;20503;-75
2022/03/31 10:17:53;;;;;;;26.83;11.30;;;;;;;;;;4997185;28;20420;-75
2022/03/31 10:20:21;;;;;;;32.07;13.63;;;;;;;;;;4997274;28;20412;-75
2022/03/31 10:25:47;;;;;;;29.00;12.70;;;;;;;;;;4996911;28;20822;-73
2022/03/31 10:28:13;;;;;;;35.27;12.93;;;;;;;;;;4997011;28;20388;-73
2022/03/31 10:30:51;;;;;;;61.43;16.53;;;11.00;1.00;;;;;;4997006;28;20897;-74
2022/03/31 10:33:26;;;;;;;36.67;13.40;;;;;;;;;;4994974;28;20427;-74
2022/03/31 10:36:00;;;;;;;35.90;14.30;;;;;;;;;;4989070;28;20456;-73
2022/03/31 10:38:27;;;;;;;40.70;14.30;;;;;;;;;;4995165;28;20446;-73
2022/03/31 10:41:00;;;;;;;32.30;12.77;;;;;;;;;;4997182;28;20416;-73
2022/03/31 10:43:27;;;;;;;37.60;14.17;;;;;;;;;;4991747;28;20442;-73
2022/03/31 10:45:54;;;;;;;76.00;16.83;;;;;;;;;;4996039;28;20435;-73
2022/03/31 10:48:22;;;;;;;46.47;14.60;;;;;;;;;;4995926;28;20824;-73
2022/03/31 10:51:10;;;;;;;33.80;14.20;;;11.30;1.00;;;;;;4995897;28;20465;-73
2022/03/31 10:53:39;;;;;;;34.03;14.60;;;;;;;;;;4989569;28;20421;-73
2022/03/31 10:56:25;;;;;;;29.47;11.97;;;11.30;1.00;;;;;;4996646;28;20507;-73
2022/03/31 10:58:52;;;;;;;59.97;15.27;;;;;;;;;;4994869;28;20420;-73
2022/03/31 11:01:19;;;;;;;39.87;13.90;;;10.70;1.00;;;;;;4996919;28;20408;-73
2022/03/31 11:03:56;;;;;;;33.47;13.60;;;;;;;;;;4996674;28;20415;-73
2022/03/31 11:06:22;;;;;;;34.40;13.57;;;;;;;;;;4997163;28;20460;-75
2022/03/31 11:08:49;;;;;;;45.47;13.73;;;10.60;1.00;;;;;;4995745;28;20424;-75
2022/03/31 11:11:29;;;;;;;40.40;13.80;;;10.60;1.00;;;;;;4990646;28;20444;-75
2022/03/31 11:13:57;;;;;;;32.43;11.87;;;;;;;;;;4993393;28;20510;-75
2022/03/31 11:16:35;;;;;;;37.03;12.90;;;10.40;1.00;;;;;;4996411;28;20425;-75
2022/03/31 11:19:04;;;;;;;39.50;14.00;;;;;;;;;;4988046;28;20500;-75
2022/03/31 11:21:34;;;;;;;35.47;13.30;;;;;;;;;;4996492;28;20494;-73
2022/03/31 11:24:00;;;;;;;27.67;12.00;;;;;;;;;;4996184;28;20405;-73
2022/03/31 11:26:30;;;;;;;35.40;13.00;;;;;;;;;;4994996;28;20467;-73
2022/03/31 11:28:57;;;;;;;41.47;13.57;;;;;;;;;;4994656;28;20436;-73
2022/03/31 11:31:23;;;;;;;31.70;12.33;;;;;;;;;;4992723;28;20494;-75
2022/03/31 11:33:50;;;;;;;39.40;13.50;;;;;;;;;;4993344;28;20443;-73
2022/03/31 11:36:20;;;;;;;59.13;14.30;;;;;;;;;;4998724;28;20421;-73
2022/03/31 11:38:59;;;;;;;80.27;16.77;;;;;;;;;;4993513;28;20947;-73
2022/03/31 11:41:36;;;;;;;36.37;13.40;;;;;;;;;;4995183;28;20428;-72
2022/03/31 11:44:02;;;;;;;30.80;11.80;;;;;;;;;;4993491;28;20466;-72
2022/03/31 11:46:47;;;;;;;32.90;12.80;;;;;;;;;;4991422;28;20461;-72
2022/03/31 11:49:20;;;;;;;50.87;14.57;;;;;;;;;;4982334;28;20482;-72
2022/03/31 11:51:55;;;;;;;37.10;13.53;;;10.80;1.00;;;;;;4995635;28;20900;-77
2022/03/31 11:54:22;;;;;;;33.83;13.10;;;;;;;;;;4995457;28;20417;-77
2022/03/31 11:57:02;;;;;;;35.47;13.13;;;;;;;;;;4995170;28;20396;-77
2022/03/31 11:59:28;;;;;;;36.87;12.80;;;;;;;;;;4994518;28;20521;-77
2022/03/31 12:01:55;;;;;;;31.77;12.10;;;;;;;;;;4994959;28;20915;-77
2022/03/31 12:04:26;;;;;;;37.57;13.13;;;;;;;;;;4994809;28;20394;-77
2022/03/31 12:06:54;;;;;;;25.50;11.40;;;11.70;1.00;;;;;;4995516;28;20811;-77
2022/03/31 12:09:20;;;;;;;36.13;13.30;;;;;;;;;;4994470;28;20536;-78
2022/03/31 12:11:48;;;;;;;34.43;13.03;;;;;;;;;;4994732;28;20439;-78
2022/03/31 12:14:14;;;;;;;32.50;12.70;;;;;;;;;;5000036;28;20409;-77
2022/03/31 12:16:44;;;;;;;34.80;13.73;;;;;;;;;;4995048;28;20442;-77
2022/03/31 12:19:11;;;;;;;30.20;11.83;;;;;;;;;;4994418;28;20446;-78
2022/03/31 12:21:47;;;;;;;31.63;12.23;;;13.10;1.00;;;;;;4995184;28;20421;-73
2022/03/31 12:24:14;;;;;;;32.73;12.50;;;;;;;;;;4994713;28;20399;-73
2022/03/31 12:26:53;;;;;;;46.57;13.70;;;;;;;;;;4993973;28;20526;-72
2022/03/31 12:29:19;;;;;;;33.67;13.07;;;;;;;;;;4992667;28;20420;-74
2022/03/31 12:31:46;;;;;;;28.17;12.13;;;;;;;;;;4994628;28;20429;-74
2022/03/31 12:34:12;;;;;;;31.70;12.77;;;;;;;;;;4994856;28;20421;-73
2022/03/31 12:36:40;;;;;;;35.17;12.83;;;;;;;;;;4984681;28;20779;-73
2022/03/31 12:39:07;;;;;;;25.87;11.10;;;;;;;;;;4994795;28;20508;-74
2022/03/31 12:41:36;;;;;;;31.87;12.30;;;14.00;99.90;;;;;;4994821;28;20434;-73
2022/03/31 12:44:05;;;;;;;29.80;10.73;;;;;;;;;;4994543;28;20436;-73
2022/03/31 12:46:44;;;;;;;39.40;12.47;;;14.20;99.90;;;;;;4994398;28;20484;-74
2022/03/31 12:49:12;;;;;;;39.07;11.70;;;;;;;;;;4992947;28;20431;-74
2022/03/31 12:51:52;;;;;;;32.17;11.90;;;;;;;;;;4994187;28;20437;-74
2022/03/31 12:54:39;;;;;;;34.73;12.87;;;13.60;99.90;;;;;;4994183;28;20448;-74
2022/03/31 12:57:20;;;;;;;23.00;10.17;;;13.30;99.90;;;;;;4994117;28;20433;-73
2022/03/31 12:59:57;;;;;;;26.50;10.97;;;;;;;;;;4994056;28;20481;-73
2022/03/31 13:02:23;;;;;;;62.50;13.57;;;;;;;;;;4993931;28;20417;-73
2022/03/31 13:04:49;;;;;;;28.10;12.07;;;;;;;;;;4993665;28;20457;-74
2022/03/31 13:07:17;;;;;;;52.60;13.40;;;;;;;;;;4994267;28;20460;-75
2022/03/31 13:09:44;;;;;;;35.70;12.67;;;;;;;;;;4993388;28;20404;-75
2022/03/31 13:12:10;;;;;;;36.40;12.23;;;;;;;;;;4995074;28;20420;-75
2022/03/31 13:14:40;;;;;;;32.57;12.67;;;;;;;;;;4997403;28;20406;-75
2022/03/31 13:17:07;;;;;;;24.20;10.77;;;12.60;1.00;;;;;;4993226;28;20980;-75
2022/03/31 13:19:33;;;;;;;28.43;11.67;;;;;;;;;;4993599;28;20407;-75
2022/03/31 13:22:00;;;;;;;26.57;10.77;;;;;;;;;;4993630;28;20905;-76
2022/03/31 13:24:26;;;;;;;29.37;11.30;;;;;;;;;;4993854;28;20434;-75
2022/03/31 13:26:52;;;;;;;43.37;12.03;;;;;;;;;;4994271;28;22279;-75
2022/03/31 13:29:23;;;;;;;39.10;11.37;;;12.20;1.00;;;;;;4993295;28;20424;-75
2022/03/31 13:31:52;;;;;;;26.00;11.00;;;;;;;;;;4993117;28;20436;-75
2022/03/31 13:34:21;;;;;;;38.10;11.90;;;11.50;1.00;;;;;;4993410;28;20392;-75
2022/03/31 13:36:47;;;;;;;39.90;11.63;;;;;;;;;;4993989;28;20436;-75
2022/03/31 13:39:15;;;;;;;30.30;11.13;;;;;;;;;;4998139;28;20437;-73
2022/03/31 13:41:42;;;;;;;35.47;12.40;;;;;;;;;;4992722;28;20499;-74
2022/03/31 13:44:08;;;;;;;29.77;11.30;;;;;;;;;;4993406;28;20886;-74
2022/03/31 13:46:35;;;;;;;27.97;11.50;;;;;;;;;;4994361;28;20459;-73
2022/03/31 13:49:01;;;;;;;41.53;12.60;;;;;;;;;;4992488;28;20843;-74
2022/03/31 13:51:27;;;;;;;38.23;12.63;;;;;;;;;;4993201;28;20493;-73
2022/03/31 13:53:55;;;;;;;29.30;11.30;;;;;;;;;;4993715;28;20462;-75
2022/03/31 13:56:22;;;;;;;33.20;11.67;;;;;;;;;;4986261;28;21150;-76
2022/03/31 14:01:34;;;;;;;28.97;10.87;;;;;;;;;;4993484;28;20834;-75
2022/03/31 14:04:01;;;;;;;28.43;10.93;;;;;;;;;;4992548;28;20882;-76
2022/03/31 14:06:29;;;;;;;32.47;11.07;;;;;;;;;;4993466;28;20518;-77
2022/03/31 14:08:55;;;;;;;28.53;10.97;;;;;;;;;;4993406;28;20897;-73
2022/03/31 14:11:22;;;;;;;30.53;9.63;;;;;;;;;;4993021;28;20402;-76
2022/03/31 14:13:50;;;;;;;45.07;12.40;;;;;;;;;;4993980;28;20407;-74
2022/03/31 14:16:16;;;;;;;40.23;11.00;;;;;;;;;;4986145;28;20405;-73
2022/03/31 14:18:44;;;;;;;19.73;9.37;;;;;;;;;;4993241;28;20777;-72
2022/03/31 14:21:11;;;;;;;20.77;8.77;;;;;;;;;;4991873;28;20896;-74